sensor_id;sensor_type;location;lat;lon;timestamp;P1;durP1;ratioP1;P2;durP2;ratioP2
51981;SDS011;37998;53.416;6.730;2023-07-24T00:02:13;14.70;;;7.05;;
51981;SDS011;37998;53.416;6.730;2023-07-24T00:04:39;12.15;;;6.63;;
51981;SDS011;37998;53.416;6.730;2023-07-24T00:07:05;18.83;;;7.68;;
51981;SDS011;37998;53.416;6.730;2023-07-24T00:09:32;11.23;;;6.95;;
51981;SDS011;37998;53.416;6.730;2023-07-24T00:11:58;10.60;;;7.03;;
51981;SDS011;37998;53.416;6.730;2023-07-24T00:14:24;12.63;;;7.13;;
51981;SDS011;37998;53.416;6.730;2023-07-24T00:16:50;12.13;;;7.47;;
51981;SDS011;37998;53.416;6.730;2023-07-24T00:19:16;11.02;;;6.85;;
51981;SDS011;37998;53.416;6.730;2023-07-24T00:21:43;10.68;;;7.05;;
51981;SDS011;37998;53.416;6.730;2023-07-24T00:24:09;14.93;;;7.03;;
51981;SDS011;37998;53.416;6.730;2023-07-24T00:26:35;12.07;;;7.22;;
51981;SDS011;37998;53.416;6.730;2023-07-24T00:29:01;15.00;;;7.13;;
51981;SDS011;37998;53.416;6.730;2023-07-24T00:31:27;11.40;;;6.45;;
51981;SDS011;37998;53.416;6.730;2023-07-24T00:33:53;11.27;;;6.63;;
51981;SDS011;37998;53.416;6.730;2023-07-24T00:36:19;11.45;;;6.32;;
51981;SDS011;37998;53.416;6.730;2023-07-24T00:38:45;10.13;;;6.78;;
51981;SDS011;37998;53.416;6.730;2023-07-24T00:41:13;11.40;;;6.10;;
51981;SDS011;37998;53.416;6.730;2023-07-24T00:43:39;11.48;;;7.18;;
51981;SDS011;37998;53.416;6.730;2023-07-24T00:46:06;12.50;;;7.25;;
51981;SDS011;37998;53.416;6.730;2023-07-24T00:48:32;11.15;;;6.63;;
51981;SDS011;37998;53.416;6.730;2023-07-24T00:50:58;11.02;;;6.75;;
51981;SDS011;37998;53.416;6.730;2023-07-24T00:53:25;10.32;;;6.75;;
51981;SDS011;37998;53.416;6.730;2023-07-24T00:55:52;13.52;;;6.20;;
51981;SDS011;37998;53.416;6.730;2023-07-24T00:58:19;14.18;;;7.25;;
51981;SDS011;37998;53.416;6.730;2023-07-24T01:00:46;12.93;;;6.30;;
51981;SDS011;37998;53.416;6.730;2023-07-24T01:03:12;12.13;;;6.07;;
51981;SDS011;37998;53.416;6.730;2023-07-24T01:05:38;11.48;;;6.65;;
51981;SDS011;37998;53.416;6.730;2023-07-24T01:08:05;13.45;;;6.15;;
51981;SDS011;37998;53.416;6.730;2023-07-24T01:10:32;12.00;;;6.60;;
51981;SDS011;37998;53.416;6.730;2023-07-24T01:13:05;11.88;;;6.10;;
51981;SDS011;37998;53.416;6.730;2023-07-24T01:18:31;12.25;;;6.03;;
51981;SDS011;37998;53.416;6.730;2023-07-24T01:20:59;10.00;;;6.57;;
51981;SDS011;37998;53.416;6.730;2023-07-24T01:23:40;12.38;;;6.60;;
51981;SDS011;37998;53.416;6.730;2023-07-24T01:26:30;9.13;;;6.38;;
51981;SDS011;37998;53.416;6.730;2023-07-24T01:28:57;12.15;;;6.85;;
51981;SDS011;37998;53.416;6.730;2023-07-24T01:31:25;11.45;;;6.30;;
51981;SDS011;37998;53.416;6.730;2023-07-24T01:33:51;16.77;;;6.72;;
51981;SDS011;37998;53.416;6.730;2023-07-24T01:36:18;10.77;;;6.32;;
51981;SDS011;37998;53.416;6.730;2023-07-24T01:38:48;11.90;;;6.35;;
51981;SDS011;37998;53.416;6.730;2023-07-24T01:41:15;10.02;;;6.32;;
51981;SDS011;37998;53.416;6.730;2023-07-24T01:43:42;15.23;;;7.03;;
51981;SDS011;37998;53.416;6.730;2023-07-24T01:46:11;16.80;;;7.40;;
51981;SDS011;37998;53.416;6.730;2023-07-24T01:48:37;10.10;;;6.85;;
51981;SDS011;37998;53.416;6.730;2023-07-24T01:51:03;11.95;;;6.72;;
51981;SDS011;37998;53.416;6.730;2023-07-24T01:53:32;13.30;;;6.90;;
51981;SDS011;37998;53.416;6.730;2023-07-24T01:55:58;11.80;;;6.90;;
51981;SDS011;37998;53.416;6.730;2023-07-24T01:58:27;15.52;;;6.90;;
51981;SDS011;37998;53.416;6.730;2023-07-24T02:00:57;15.25;;;7.35;;
51981;SDS011;37998;53.416;6.730;2023-07-24T02:03:23;13.02;;;7.05;;
51981;SDS011;37998;53.416;6.730;2023-07-24T02:05:49;12.75;;;7.25;;
51981;SDS011;37998;53.416;6.730;2023-07-24T02:08:16;14.98;;;6.72;;
51981;SDS011;37998;53.416;6.730;2023-07-24T02:10:42;15.52;;;7.40;;
51981;SDS011;37998;53.416;6.730;2023-07-24T02:13:08;13.27;;;6.97;;
51981;SDS011;37998;53.416;6.730;2023-07-24T02:15:34;12.35;;;7.63;;
51981;SDS011;37998;53.416;6.730;2023-07-24T02:18:01;15.90;;;7.43;;
51981;SDS011;37998;53.416;6.730;2023-07-24T02:20:29;15.85;;;8.20;;
51981;SDS011;37998;53.416;6.730;2023-07-24T02:22:55;12.55;;;7.65;;
51981;SDS011;37998;53.416;6.730;2023-07-24T02:25:22;16.40;;;7.80;;
51981;SDS011;37998;53.416;6.730;2023-07-24T02:27:51;14.48;;;6.95;;
51981;SDS011;37998;53.416;6.730;2023-07-24T02:30:17;13.13;;;7.82;;
51981;SDS011;37998;53.416;6.730;2023-07-24T02:32:43;11.52;;;7.68;;
51981;SDS011;37998;53.416;6.730;2023-07-24T02:35:11;14.43;;;7.30;;
51981;SDS011;37998;53.416;6.730;2023-07-24T02:37:37;12.57;;;6.88;;
51981;SDS011;37998;53.416;6.730;2023-07-24T02:40:03;13.00;;;7.30;;
51981;SDS011;37998;53.416;6.730;2023-07-24T02:42:31;11.55;;;7.90;;
51981;SDS011;37998;53.416;6.730;2023-07-24T02:44:57;14.60;;;8.73;;
51981;SDS011;37998;53.416;6.730;2023-07-24T02:47:23;15.23;;;8.82;;
51981;SDS011;37998;53.416;6.730;2023-07-24T02:49:49;13.05;;;8.15;;
51981;SDS011;37998;53.416;6.730;2023-07-24T02:52:15;14.60;;;8.35;;
51981;SDS011;37998;53.416;6.730;2023-07-24T02:54:41;19.35;;;9.55;;
51981;SDS011;37998;53.416;6.730;2023-07-24T02:57:07;17.15;;;9.40;;
51981;SDS011;37998;53.416;6.730;2023-07-24T02:59:32;17.45;;;10.10;;
51981;SDS011;37998;53.416;6.730;2023-07-24T03:02:03;16.45;;;10.45;;
51981;SDS011;37998;53.416;6.730;2023-07-24T03:04:29;16.20;;;11.45;;
51981;SDS011;37998;53.416;6.730;2023-07-24T03:06:56;14.07;;;11.50;;
51981;SDS011;37998;53.416;6.730;2023-07-24T03:09:25;16.92;;;11.73;;
51981;SDS011;37998;53.416;6.730;2023-07-24T03:12:00;17.10;;;12.10;;
51981;SDS011;37998;53.416;6.730;2023-07-24T03:14:26;21.92;;;13.60;;
51981;SDS011;37998;53.416;6.730;2023-07-24T03:16:52;15.73;;;11.93;;
51981;SDS011;37998;53.416;6.730;2023-07-24T03:19:18;19.75;;;12.93;;
51981;SDS011;37998;53.416;6.730;2023-07-24T03:21:45;17.60;;;12.13;;
51981;SDS011;37998;53.416;6.730;2023-07-24T03:24:11;17.83;;;12.68;;
51981;SDS011;37998;53.416;6.730;2023-07-24T03:26:37;15.02;;;11.77;;
51981;SDS011;37998;53.416;6.730;2023-07-24T03:29:04;15.77;;;12.15;;
51981;SDS011;37998;53.416;6.730;2023-07-24T03:31:30;17.17;;;13.02;;
51981;SDS011;37998;53.416;6.730;2023-07-24T03:33:56;19.45;;;13.13;;
51981;SDS011;37998;53.416;6.730;2023-07-24T03:36:22;18.70;;;12.57;;
51981;SDS011;37998;53.416;6.730;2023-07-24T03:38:48;17.90;;;12.50;;
51981;SDS011;37998;53.416;6.730;2023-07-24T03:41:14;18.17;;;12.60;;
51981;SDS011;37998;53.416;6.730;2023-07-24T03:43:40;18.13;;;13.15;;
51981;SDS011;37998;53.416;6.730;2023-07-24T03:46:08;19.60;;;13.32;;
51981;SDS011;37998;53.416;6.730;2023-07-24T03:48:34;18.25;;;12.80;;
51981;SDS011;37998;53.416;6.730;2023-07-24T03:51:01;17.67;;;12.05;;
51981;SDS011;37998;53.416;6.730;2023-07-24T03:53:32;20.70;;;12.32;;
51981;SDS011;37998;53.416;6.730;2023-07-24T03:55:58;20.00;;;12.10;;
51981;SDS011;37998;53.416;6.730;2023-07-24T03:58:24;15.77;;;11.60;;
51981;SDS011;37998;53.416;6.730;2023-07-24T04:00:50;17.67;;;11.98;;
51981;SDS011;37998;53.416;6.730;2023-07-24T04:03:16;15.85;;;12.57;;
51981;SDS011;37998;53.416;6.730;2023-07-24T04:05:42;17.58;;;11.70;;
51981;SDS011;37998;53.416;6.730;2023-07-24T04:08:08;16.80;;;11.50;;
51981;SDS011;37998;53.416;6.730;2023-07-24T04:10:34;16.73;;;11.23;;
51981;SDS011;37998;53.416;6.730;2023-07-24T04:13:01;16.27;;;11.05;;
51981;SDS011;37998;53.416;6.730;2023-07-24T04:15:26;14.23;;;10.65;;
51981;SDS011;37998;53.416;6.730;2023-07-24T04:17:52;17.67;;;10.40;;
51981;SDS011;37998;53.416;6.730;2023-07-24T04:20:18;16.13;;;10.88;;
51981;SDS011;37998;53.416;6.730;2023-07-24T04:22:44;14.15;;;9.90;;
51981;SDS011;37998;53.416;6.730;2023-07-24T04:25:10;16.90;;;10.23;;
51981;SDS011;37998;53.416;6.730;2023-07-24T04:27:45;15.15;;;10.23;;
51981;SDS011;37998;53.416;6.730;2023-07-24T04:30:11;20.48;;;10.43;;
51981;SDS011;37998;53.416;6.730;2023-07-24T04:32:37;13.52;;;9.75;;
51981;SDS011;37998;53.416;6.730;2023-07-24T04:35:03;16.63;;;9.73;;
51981;SDS011;37998;53.416;6.730;2023-07-24T04:37:29;15.70;;;9.25;;
51981;SDS011;37998;53.416;6.730;2023-07-24T04:39:55;14.45;;;9.43;;
51981;SDS011;37998;53.416;6.730;2023-07-24T04:42:21;13.18;;;9.05;;
51981;SDS011;37998;53.416;6.730;2023-07-24T04:44:47;14.13;;;8.85;;
51981;SDS011;37998;53.416;6.730;2023-07-24T04:47:15;15.73;;;9.23;;
51981;SDS011;37998;53.416;6.730;2023-07-24T04:49:41;16.02;;;9.10;;
51981;SDS011;37998;53.416;6.730;2023-07-24T04:52:07;15.95;;;9.73;;
51981;SDS011;37998;53.416;6.730;2023-07-24T04:54:33;16.42;;;9.25;;
51981;SDS011;37998;53.416;6.730;2023-07-24T04:56:58;15.57;;;9.15;;
51981;SDS011;37998;53.416;6.730;2023-07-24T04:59:24;18.05;;;8.50;;
51981;SDS011;37998;53.416;6.730;2023-07-24T05:01:50;15.68;;;9.20;;
51981;SDS011;37998;53.416;6.730;2023-07-24T05:04:19;14.27;;;8.75;;
51981;SDS011;37998;53.416;6.730;2023-07-24T05:06:45;24.13;;;8.65;;
51981;SDS011;37998;53.416;6.730;2023-07-24T05:09:10;13.63;;;9.18;;
51981;SDS011;37998;53.416;6.730;2023-07-24T05:11:37;12.60;;;8.68;;
51981;SDS011;37998;53.416;6.730;2023-07-24T05:14:02;16.05;;;8.75;;
51981;SDS011;37998;53.416;6.730;2023-07-24T05:16:28;11.40;;;8.70;;
51981;SDS011;37998;53.416;6.730;2023-07-24T05:18:54;15.63;;;8.73;;
51981;SDS011;37998;53.416;6.730;2023-07-24T05:21:20;15.25;;;8.38;;
51981;SDS011;37998;53.416;6.730;2023-07-24T05:23:46;15.35;;;8.75;;
51981;SDS011;37998;53.416;6.730;2023-07-24T05:26:12;15.25;;;9.07;;
51981;SDS011;37998;53.416;6.730;2023-07-24T05:28:41;11.18;;;8.23;;
51981;SDS011;37998;53.416;6.730;2023-07-24T05:31:07;11.68;;;8.30;;
51981;SDS011;37998;53.416;6.730;2023-07-24T05:33:33;13.75;;;8.95;;
51981;SDS011;37998;53.416;6.730;2023-07-24T05:35:59;16.08;;;9.63;;
51981;SDS011;37998;53.416;6.730;2023-07-24T05:38:26;13.73;;;9.40;;
51981;SDS011;37998;53.416;6.730;2023-07-24T05:40:56;12.10;;;9.00;;
51981;SDS011;37998;53.416;6.730;2023-07-24T05:45:52;13.52;;;9.45;;
51981;SDS011;37998;53.416;6.730;2023-07-24T05:48:21;15.75;;;10.02;;
51981;SDS011;37998;53.416;6.730;2023-07-24T05:50:49;13.35;;;9.93;;
51981;SDS011;37998;53.416;6.730;2023-07-24T05:53:16;14.57;;;10.20;;
51981;SDS011;37998;53.416;6.730;2023-07-24T05:55:43;16.20;;;10.55;;
51981;SDS011;37998;53.416;6.730;2023-07-24T05:58:16;15.40;;;10.18;;
51981;SDS011;37998;53.416;6.730;2023-07-24T06:00:42;12.98;;;9.20;;
51981;SDS011;37998;53.416;6.730;2023-07-24T06:03:08;14.45;;;9.02;;
51981;SDS011;37998;53.416;6.730;2023-07-24T06:05:34;17.77;;;9.43;;
51981;SDS011;37998;53.416;6.730;2023-07-24T06:08:00;13.57;;;9.55;;
51981;SDS011;37998;53.416;6.730;2023-07-24T06:10:26;15.20;;;9.93;;
51981;SDS011;37998;53.416;6.730;2023-07-24T06:12:52;17.63;;;10.07;;
51981;SDS011;37998;53.416;6.730;2023-07-24T06:15:20;16.35;;;9.55;;
51981;SDS011;37998;53.416;6.730;2023-07-24T06:17:46;14.18;;;9.73;;
51981;SDS011;37998;53.416;6.730;2023-07-24T06:20:12;12.48;;;9.88;;
51981;SDS011;37998;53.416;6.730;2023-07-24T06:22:38;13.27;;;9.98;;
51981;SDS011;37998;53.416;6.730;2023-07-24T06:25:04;13.93;;;9.48;;
51981;SDS011;37998;53.416;6.730;2023-07-24T06:27:31;13.93;;;9.55;;
51981;SDS011;37998;53.416;6.730;2023-07-24T06:29:56;13.93;;;10.13;;
51981;SDS011;37998;53.416;6.730;2023-07-24T06:32:22;12.88;;;9.88;;
51981;SDS011;37998;53.416;6.730;2023-07-24T06:34:48;13.93;;;9.40;;
51981;SDS011;37998;53.416;6.730;2023-07-24T06:37:14;14.50;;;9.65;;
51981;SDS011;37998;53.416;6.730;2023-07-24T06:39:40;14.80;;;9.98;;
51981;SDS011;37998;53.416;6.730;2023-07-24T06:42:06;15.88;;;9.10;;
51981;SDS011;37998;53.416;6.730;2023-07-24T06:44:32;19.90;;;10.20;;
51981;SDS011;37998;53.416;6.730;2023-07-24T06:46:58;13.30;;;9.38;;
51981;SDS011;37998;53.416;6.730;2023-07-24T06:49:24;16.15;;;9.50;;
51981;SDS011;37998;53.416;6.730;2023-07-24T06:51:50;12.20;;;9.00;;
51981;SDS011;37998;53.416;6.730;2023-07-24T06:54:15;15.18;;;9.77;;
51981;SDS011;37998;53.416;6.730;2023-07-24T06:56:41;13.18;;;9.13;;
51981;SDS011;37998;53.416;6.730;2023-07-24T06:59:07;16.95;;;9.93;;
51981;SDS011;37998;53.416;6.730;2023-07-24T07:01:33;14.75;;;9.15;;
51981;SDS011;37998;53.416;6.730;2023-07-24T07:03:59;19.65;;;9.15;;
51981;SDS011;37998;53.416;6.730;2023-07-24T07:06:25;15.70;;;8.90;;
51981;SDS011;37998;53.416;6.730;2023-07-24T07:08:51;11.88;;;8.75;;
51981;SDS011;37998;53.416;6.730;2023-07-24T07:11:17;14.23;;;9.45;;
51981;SDS011;37998;53.416;6.730;2023-07-24T07:13:43;15.35;;;10.20;;
51981;SDS011;37998;53.416;6.730;2023-07-24T07:16:09;13.82;;;10.07;;
51981;SDS011;37998;53.416;6.730;2023-07-24T07:18:37;13.57;;;10.02;;
51981;SDS011;37998;53.416;6.730;2023-07-24T07:21:03;12.70;;;9.30;;
51981;SDS011;37998;53.416;6.730;2023-07-24T07:23:29;13.90;;;9.90;;
51981;SDS011;37998;53.416;6.730;2023-07-24T07:25:55;15.13;;;8.80;;
51981;SDS011;37998;53.416;6.730;2023-07-24T07:28:21;16.10;;;9.63;;
51981;SDS011;37998;53.416;6.730;2023-07-24T07:30:47;15.23;;;9.38;;
51981;SDS011;37998;53.416;6.730;2023-07-24T07:33:13;13.57;;;8.82;;
51981;SDS011;37998;53.416;6.730;2023-07-24T07:35:39;21.40;;;8.55;;
51981;SDS011;37998;53.416;6.730;2023-07-24T07:38:05;14.15;;;8.48;;
51981;SDS011;37998;53.416;6.730;2023-07-24T07:40:31;14.55;;;9.18;;
51981;SDS011;37998;53.416;6.730;2023-07-24T07:42:56;12.10;;;7.78;;
51981;SDS011;37998;53.416;6.730;2023-07-24T07:45:23;16.88;;;8.82;;
51981;SDS011;37998;53.416;6.730;2023-07-24T07:47:49;13.65;;;8.27;;
51981;SDS011;37998;53.416;6.730;2023-07-24T07:50:18;15.25;;;8.43;;
51981;SDS011;37998;53.416;6.730;2023-07-24T07:52:44;13.15;;;8.05;;
51981;SDS011;37998;53.416;6.730;2023-07-24T07:55:13;18.83;;;8.88;;
51981;SDS011;37998;53.416;6.730;2023-07-24T07:57:39;17.38;;;8.73;;
51981;SDS011;37998;53.416;6.730;2023-07-24T08:00:05;14.15;;;8.23;;
51981;SDS011;37998;53.416;6.730;2023-07-24T08:02:33;14.10;;;8.25;;
51981;SDS011;37998;53.416;6.730;2023-07-24T08:04:59;10.13;;;7.45;;
51981;SDS011;37998;53.416;6.730;2023-07-24T08:07:25;13.85;;;7.90;;
51981;SDS011;37998;53.416;6.730;2023-07-24T08:09:52;15.35;;;8.02;;
51981;SDS011;37998;53.416;6.730;2023-07-24T08:12:18;11.07;;;8.00;;
51981;SDS011;37998;53.416;6.730;2023-07-24T08:14:44;12.63;;;7.07;;
51981;SDS011;37998;53.416;6.730;2023-07-24T08:17:09;16.05;;;8.68;;
51981;SDS011;37998;53.416;6.730;2023-07-24T08:19:35;10.85;;;8.30;;
51981;SDS011;37998;53.416;6.730;2023-07-24T08:22:01;10.32;;;7.43;;
51981;SDS011;37998;53.416;6.730;2023-07-24T08:24:27;11.95;;;7.13;;
51981;SDS011;37998;53.416;6.730;2023-07-24T08:26:53;10.32;;;7.68;;
51981;SDS011;37998;53.416;6.730;2023-07-24T08:29:19;11.98;;;7.97;;
51981;SDS011;37998;53.416;6.730;2023-07-24T08:31:51;10.52;;;7.30;;
51981;SDS011;37998;53.416;6.730;2023-07-24T08:34:16;12.05;;;7.53;;
51981;SDS011;37998;53.416;6.730;2023-07-24T08:36:42;16.48;;;7.22;;
51981;SDS011;37998;53.416;6.730;2023-07-24T08:39:08;10.27;;;6.38;;
51981;SDS011;37998;53.416;6.730;2023-07-24T08:41:34;10.73;;;6.85;;
51981;SDS011;37998;53.416;6.730;2023-07-24T08:44:04;11.15;;;6.60;;
51981;SDS011;37998;53.416;6.730;2023-07-24T08:46:36;13.27;;;7.10;;
51981;SDS011;37998;53.416;6.730;2023-07-24T08:49:03;10.77;;;6.82;;
51981;SDS011;37998;53.416;6.730;2023-07-24T08:51:29;10.07;;;6.75;;
51981;SDS011;37998;53.416;6.730;2023-07-24T08:53:57;16.30;;;7.60;;
51981;SDS011;37998;53.416;6.730;2023-07-24T08:56:26;11.57;;;7.15;;
51981;SDS011;37998;53.416;6.730;2023-07-24T08:58:52;17.65;;;7.13;;
51981;SDS011;37998;53.416;6.730;2023-07-24T09:01:18;13.73;;;7.90;;
51981;SDS011;37998;53.416;6.730;2023-07-24T09:03:44;13.95;;;7.53;;
51981;SDS011;37998;53.416;6.730;2023-07-24T09:06:10;14.73;;;7.45;;
51981;SDS011;37998;53.416;6.730;2023-07-24T09:08:37;11.50;;;7.55;;
51981;SDS011;37998;53.416;6.730;2023-07-24T09:11:07;12.13;;;7.40;;
51981;SDS011;37998;53.416;6.730;2023-07-24T09:13:37;10.25;;;6.60;;
51981;SDS011;37998;53.416;6.730;2023-07-24T09:16:07;16.55;;;6.45;;
51981;SDS011;37998;53.416;6.730;2023-07-24T09:18:39;13.23;;;6.38;;
51981;SDS011;37998;53.416;6.730;2023-07-24T09:21:07;12.98;;;6.57;;
51981;SDS011;37998;53.416;6.730;2023-07-24T09:23:33;10.75;;;6.60;;
51981;SDS011;37998;53.416;6.730;2023-07-24T09:26:04;9.57;;;6.22;;
51981;SDS011;37998;53.416;6.730;2023-07-24T09:28:30;13.77;;;6.00;;
51981;SDS011;37998;53.416;6.730;2023-07-24T09:30:58;10.43;;;6.18;;
51981;SDS011;37998;53.416;6.730;2023-07-24T09:33:34;9.35;;;6.43;;
51981;SDS011;37998;53.416;6.730;2023-07-24T09:36:01;9.63;;;5.70;;
51981;SDS011;37998;53.416;6.730;2023-07-24T09:38:33;10.60;;;5.50;;
51981;SDS011;37998;53.416;6.730;2023-07-24T09:41:00;8.75;;;5.70;;
51981;SDS011;37998;53.416;6.730;2023-07-24T09:43:28;12.02;;;6.20;;
51981;SDS011;37998;53.416;6.730;2023-07-24T09:45:55;12.40;;;6.25;;
51981;SDS011;37998;53.416;6.730;2023-07-24T09:48:22;11.68;;;5.57;;
51981;SDS011;37998;53.416;6.730;2023-07-24T09:50:57;8.60;;;5.18;;
51981;SDS011;37998;53.416;6.730;2023-07-24T09:53:33;8.80;;;5.38;;
51981;SDS011;37998;53.416;6.730;2023-07-24T09:56:04;10.68;;;5.20;;
51981;SDS011;37998;53.416;6.730;2023-07-24T09:58:36;9.43;;;5.75;;
51981;SDS011;37998;53.416;6.730;2023-07-24T10:01:03;9.77;;;5.68;;
51981;SDS011;37998;53.416;6.730;2023-07-24T10:03:34;10.20;;;5.28;;
51981;SDS011;37998;53.416;6.730;2023-07-24T10:06:03;6.50;;;4.53;;
51981;SDS011;37998;53.416;6.730;2023-07-24T10:08:30;9.57;;;5.55;;
51981;SDS011;37998;53.416;6.730;2023-07-24T10:11:00;12.27;;;3.80;;
51981;SDS011;37998;53.416;6.730;2023-07-24T10:13:27;8.13;;;3.13;;
51981;SDS011;37998;53.416;6.730;2023-07-24T10:15:53;5.95;;;2.65;;
51981;SDS011;37998;53.416;6.730;2023-07-24T10:18:28;7.78;;;2.40;;
51981;SDS011;37998;53.416;6.730;2023-07-24T10:21:07;5.72;;;2.67;;
51981;SDS011;37998;53.416;6.730;2023-07-24T10:23:35;5.05;;;2.13;;
51981;SDS011;37998;53.416;6.730;2023-07-24T10:28:53;9.40;;;3.17;;
51981;SDS011;37998;53.416;6.730;2023-07-24T10:34:06;8.30;;;2.92;;
51981;SDS011;37998;53.416;6.730;2023-07-24T10:36:33;7.45;;;2.83;;
51981;SDS011;37998;53.416;6.730;2023-07-24T10:39:01;10.07;;;4.00;;
51981;SDS011;37998;53.416;6.730;2023-07-24T10:41:34;10.40;;;3.78;;
51981;SDS011;37998;53.416;6.730;2023-07-24T10:44:01;8.07;;;4.30;;
51981;SDS011;37998;53.416;6.730;2023-07-24T10:46:36;8.15;;;4.32;;
51981;SDS011;37998;53.416;6.730;2023-07-24T10:49:09;11.20;;;4.72;;
51981;SDS011;37998;53.416;6.730;2023-07-24T10:51:38;7.30;;;4.35;;
51981;SDS011;37998;53.416;6.730;2023-07-24T10:54:04;8.65;;;4.70;;
51981;SDS011;37998;53.416;6.730;2023-07-24T10:56:30;8.57;;;5.57;;
51981;SDS011;37998;53.416;6.730;2023-07-24T10:59:01;7.07;;;5.05;;
51981;SDS011;37998;53.416;6.730;2023-07-24T11:01:31;13.68;;;5.80;;
51981;SDS011;37998;53.416;6.730;2023-07-24T11:03:58;8.68;;;5.75;;
51981;SDS011;37998;53.416;6.730;2023-07-24T11:06:24;11.38;;;6.15;;
51981;SDS011;37998;53.416;6.730;2023-07-24T11:08:56;9.48;;;6.28;;
51981;SDS011;37998;53.416;6.730;2023-07-24T11:11:28;11.63;;;7.18;;
51981;SDS011;37998;53.416;6.730;2023-07-24T11:13:58;10.38;;;7.15;;
51981;SDS011;37998;53.416;6.730;2023-07-24T11:16:25;10.98;;;7.25;;
51981;SDS011;37998;53.416;6.730;2023-07-24T11:18:51;12.80;;;7.13;;
51981;SDS011;37998;53.416;6.730;2023-07-24T11:21:17;9.10;;;6.97;;
51981;SDS011;37998;53.416;6.730;2023-07-24T11:23:54;10.95;;;6.50;;
51981;SDS011;37998;53.416;6.730;2023-07-24T11:26:21;10.02;;;6.40;;
51981;SDS011;37998;53.416;6.730;2023-07-24T11:28:48;7.57;;;6.00;;
51981;SDS011;37998;53.416;6.730;2023-07-24T11:31:15;8.02;;;5.43;;
51981;SDS011;37998;53.416;6.730;2023-07-24T11:33:44;9.63;;;5.43;;
51981;SDS011;37998;53.416;6.730;2023-07-24T11:36:11;10.55;;;6.40;;
51981;SDS011;37998;53.416;6.730;2023-07-24T11:38:37;11.85;;;6.40;;
51981;SDS011;37998;53.416;6.730;2023-07-24T11:41:04;15.02;;;6.00;;
51981;SDS011;37998;53.416;6.730;2023-07-24T11:43:30;7.93;;;5.38;;
51981;SDS011;37998;53.416;6.730;2023-07-24T11:45:56;7.97;;;4.82;;
51981;SDS011;37998;53.416;6.730;2023-07-24T11:48:22;10.20;;;5.47;;
51981;SDS011;37998;53.416;6.730;2023-07-24T11:50:53;10.80;;;5.32;;
51981;SDS011;37998;53.416;6.730;2023-07-24T11:53:24;10.52;;;5.90;;
51981;SDS011;37998;53.416;6.730;2023-07-24T11:55:51;6.60;;;5.70;;
51981;SDS011;37998;53.416;6.730;2023-07-24T11:58:19;8.85;;;6.03;;
51981;SDS011;37998;53.416;6.730;2023-07-24T12:00:46;9.00;;;6.05;;
51981;SDS011;37998;53.416;6.730;2023-07-24T12:03:18;10.77;;;6.80;;
51981;SDS011;37998;53.416;6.730;2023-07-24T12:05:46;6.85;;;5.63;;
51981;SDS011;37998;53.416;6.730;2023-07-24T12:08:12;5.97;;;5.38;;
51981;SDS011;37998;53.416;6.730;2023-07-24T12:10:39;8.68;;;4.63;;
51981;SDS011;37998;53.416;6.730;2023-07-24T12:13:06;4.68;;;4.07;;
51981;SDS011;37998;53.416;6.730;2023-07-24T12:15:32;5.80;;;4.25;;
51981;SDS011;37998;53.416;6.730;2023-07-24T12:18:03;8.82;;;4.63;;
51981;SDS011;37998;53.416;6.730;2023-07-24T12:20:30;9.90;;;5.05;;
51981;SDS011;37998;53.416;6.730;2023-07-24T12:22:56;6.80;;;4.70;;
51981;SDS011;37998;53.416;6.730;2023-07-24T12:25:23;6.10;;;4.30;;
51981;SDS011;37998;53.416;6.730;2023-07-24T12:27:49;5.57;;;3.97;;
51981;SDS011;37998;53.416;6.730;2023-07-24T12:30:15;7.70;;;3.85;;
51981;SDS011;37998;53.416;6.730;2023-07-24T12:32:41;6.57;;;3.72;;
51981;SDS011;37998;53.416;6.730;2023-07-24T12:35:07;4.40;;;3.45;;
51981;SDS011;37998;53.416;6.730;2023-07-24T12:37:34;5.97;;;3.17;;
51981;SDS011;37998;53.416;6.730;2023-07-24T12:40:00;3.72;;;2.85;;
51981;SDS011;37998;53.416;6.730;2023-07-24T12:42:27;5.18;;;3.72;;
51981;SDS011;37998;53.416;6.730;2023-07-24T12:44:53;5.35;;;3.50;;
51981;SDS011;37998;53.416;6.730;2023-07-24T12:47:19;6.40;;;3.30;;
51981;SDS011;37998;53.416;6.730;2023-07-24T12:49:45;4.22;;;3.00;;
51981;SDS011;37998;53.416;6.730;2023-07-24T12:52:15;3.17;;;2.80;;
51981;SDS011;37998;53.416;6.730;2023-07-24T12:54:41;3.55;;;2.50;;
51981;SDS011;37998;53.416;6.730;2023-07-24T12:57:07;3.55;;;2.78;;
51981;SDS011;37998;53.416;6.730;2023-07-24T12:59:33;4.63;;;2.60;;
51981;SDS011;37998;53.416;6.730;2023-07-24T13:01:59;6.32;;;2.88;;
51981;SDS011;37998;53.416;6.730;2023-07-24T13:04:25;5.90;;;2.28;;
51981;SDS011;37998;53.416;6.730;2023-07-24T13:06:51;4.15;;;2.58;;
51981;SDS011;37998;53.416;6.730;2023-07-24T13:09:18;3.17;;;2.60;;
51981;SDS011;37998;53.416;6.730;2023-07-24T13:11:44;4.82;;;2.85;;
51981;SDS011;37998;53.416;6.730;2023-07-24T13:14:14;5.75;;;2.60;;
51981;SDS011;37998;53.416;6.730;2023-07-24T13:16:40;4.13;;;2.30;;
51981;SDS011;37998;53.416;6.730;2023-07-24T13:19:06;3.78;;;2.60;;
51981;SDS011;37998;53.416;6.730;2023-07-24T13:21:32;6.03;;;2.35;;
51981;SDS011;37998;53.416;6.730;2023-07-24T13:23:58;6.70;;;2.08;;
51981;SDS011;37998;53.416;6.730;2023-07-24T13:26:24;4.28;;;2.20;;
51981;SDS011;37998;53.416;6.730;2023-07-24T13:28:50;5.20;;;2.20;;
51981;SDS011;37998;53.416;6.730;2023-07-24T13:31:17;6.07;;;2.20;;
51981;SDS011;37998;53.416;6.730;2023-07-24T13:33:44;3.85;;;2.10;;
51981;SDS011;37998;53.416;6.730;2023-07-24T13:36:11;4.22;;;2.00;;
51981;SDS011;37998;53.416;6.730;2023-07-24T13:38:37;6.18;;;2.15;;
51981;SDS011;37998;53.416;6.730;2023-07-24T13:41:03;6.10;;;1.92;;
51981;SDS011;37998;53.416;6.730;2023-07-24T13:43:52;4.18;;;1.77;;
51981;SDS011;37998;53.416;6.730;2023-07-24T13:46:18;7.28;;;2.10;;
51981;SDS011;37998;53.416;6.730;2023-07-24T13:48:44;6.80;;;1.95;;
51981;SDS011;37998;53.416;6.730;2023-07-24T13:51:10;3.70;;;1.73;;
51981;SDS011;37998;53.416;6.730;2023-07-24T13:53:37;2.33;;;1.80;;
51981;SDS011;37998;53.416;6.730;2023-07-24T13:56:03;5.90;;;2.05;;
51981;SDS011;37998;53.416;6.730;2023-07-24T13:58:29;8.50;;;2.85;;
51981;SDS011;37998;53.416;6.730;2023-07-24T14:00:55;13.02;;;3.10;;
51981;SDS011;37998;53.416;6.730;2023-07-24T14:03:24;9.90;;;3.40;;
51981;SDS011;37998;53.416;6.730;2023-07-24T14:05:54;13.32;;;2.90;;
51981;SDS011;37998;53.416;6.730;2023-07-24T14:08:20;7.22;;;2.75;;
51981;SDS011;37998;53.416;6.730;2023-07-24T14:10:46;6.40;;;3.03;;
51981;SDS011;37998;53.416;6.730;2023-07-24T14:13:12;12.05;;;2.83;;
51981;SDS011;37998;53.416;6.730;2023-07-24T14:15:38;9.90;;;2.55;;
51981;SDS011;37998;53.416;6.730;2023-07-24T14:18:07;7.25;;;2.55;;
51981;SDS011;37998;53.416;6.730;2023-07-24T14:20:33;10.60;;;2.50;;
51981;SDS011;37998;53.416;6.730;2023-07-24T14:22:59;8.73;;;2.97;;
51981;SDS011;37998;53.416;6.730;2023-07-24T14:25:24;10.75;;;2.63;;
51981;SDS011;37998;53.416;6.730;2023-07-24T14:27:50;7.63;;;2.08;;
51981;SDS011;37998;53.416;6.730;2023-07-24T14:30:16;9.05;;;3.03;;
51981;SDS011;37998;53.416;6.730;2023-07-24T14:32:42;7.47;;;2.10;;
51981;SDS011;37998;53.416;6.730;2023-07-24T14:35:08;8.90;;;2.63;;
51981;SDS011;37998;53.416;6.730;2023-07-24T14:37:34;4.82;;;1.92;;
51981;SDS011;37998;53.416;6.730;2023-07-24T14:40:00;8.05;;;1.90;;
51981;SDS011;37998;53.416;6.730;2023-07-24T14:42:26;5.75;;;2.05;;
51981;SDS011;37998;53.416;6.730;2023-07-24T14:44:52;6.53;;;2.40;;
51981;SDS011;37998;53.416;6.730;2023-07-24T14:47:19;6.50;;;1.90;;